Time;durP1;ratioP1;P1;durP2;ratioP2;P2;SDS_P1;SDS_P2;PMS_P1;PMS_P2;Temp;Humidity;BMP_temperature;BMP_pressure;BME280_temperature;BME280_humidity;BME280_pressure;Samples;Min_cycle;Max_cycle;Signal;HPM_P1;HPM_P2
2022/05/06 00:01:36;;;;;;;8.35;4.05;;;461.60;1792.00;;;;;;5094762;28;20027;-71
2022/05/06 00:04:05;;;;;;;8.43;4.20;;;461.50;1817.60;;;;;;5094826;28;20028;-70
2022/05/06 00:06:32;;;;;;;6.55;4.18;;;461.50;1817.60;;;;;;5094823;28;20024;-70
2022/05/06 00:08:58;;;;;;;5.15;3.88;;;461.60;1817.60;;;;;;5094748;28;20034;-68
2022/05/06 00:11:25;;;;;;;9.00;4.18;;;461.60;1817.60;;;;;;5094495;28;20081;-70
2022/05/06 00:13:54;;;;;;;5.50;3.88;;;461.60;1792.00;;;;;;5094508;28;20498;-68
2022/05/06 00:16:21;;;;;;;5.95;4.05;;;461.60;1817.60;;;;;;5094402;28;20059;-70
2022/05/06 00:18:47;;;;;;;6.70;4.13;;;461.60;1817.60;;;;;;5094367;28;20035;-70
2022/05/06 00:21:12;;;;;;;;;;;461.60;1817.60;;;;;;5094707;28;20031;-70
2022/05/06 00:23:38;;;;;;;6.20;4.20;;;461.50;1843.20;;;;;;5094235;28;19904;-69
2022/05/06 00:26:04;;;;;;;6.18;4.18;;;461.50;1817.60;;;;;;5092957;28;20907;-70
2022/05/06 00:28:30;;;;;;;7.28;4.35;;;461.60;1843.20;;;;;;5093237;28;20400;-68
2022/05/06 00:30:57;;;;;;;6.10;4.43;;;461.70;1817.60;;;;;;5093281;28;20694;-70
2022/05/06 00:33:26;;;;;;;6.20;4.15;;;486.40;1817.60;;;;;;5092894;28;20380;-70
2022/05/06 00:35:57;;;;;;;6.70;4.55;;;486.60;1792.00;;;;;;5092780;28;20457;-69
2022/05/06 00:38:23;;;;;;;6.65;4.50;;;486.60;1792.00;;;;;;5092757;28;20403;-69
2022/05/06 00:40:49;;;;;;;6.70;4.07;;;486.60;1817.60;;;;;;5094080;28;20035;-67
2022/05/06 00:43:15;;;;;;;4.82;3.80;;;486.50;1792.00;;;;;;5094291;28;20397;-70
2022/05/06 00:45:57;;;;;;;7.65;4.30;;;486.40;1843.20;;;;;;5092746;28;20371;-70
2022/05/06 00:48:28;;;;;;;5.55;4.13;;;486.40;1843.20;;;;;;5091350;28;20923;-69
2022/05/06 00:50:57;;;;;;;6.38;4.65;;;486.40;1817.60;;;;;;5092680;28;20372;-70
2022/05/06 00:53:23;;;;;;;9.40;4.80;;;486.60;1817.60;;;;;;5092651;28;20849;-70
2022/05/06 00:55:51;;;;;;;6.22;4.50;;;486.60;1817.60;;;;;;5092837;28;20420;-68
2022/05/06 00:58:18;;;;;;;6.57;4.47;;;486.60;1792.00;;;;;;5092879;28;20537;-67
2022/05/06 01:00:44;;;;;;;6.03;4.65;;;486.70;1817.60;;;;;;5092908;28;20710;-69
2022/05/06 01:03:11;;;;;;;6.43;4.80;;;486.60;1817.60;;;;;;5092512;28;20407;-67
2022/05/06 01:05:38;;;;;;;8.55;4.70;;;486.50;1843.20;;;;;;5093099;28;20356;-68
2022/05/06 01:08:05;;;;;;;6.00;4.70;;;486.40;1817.60;;;;;;5092307;28;20397;-69
2022/05/06 01:10:31;;;;;;;6.15;4.50;;;486.40;1868.80;;;;;;5092368;28;20371;-68
2022/05/06 01:12:57;;;;;;;7.05;5.25;;;486.40;1843.20;;;;;;5092444;28;20368;-70
2022/05/06 01:15:28;;;;;;;7.03;4.90;;;486.40;1843.20;;;;;;5092724;28;20718;-68
2022/05/06 01:17:55;;;;;;;5.82;4.57;;;486.50;1843.20;;;;;;5092343;28;20821;-68
2022/05/06 01:20:22;;;;;;;7.03;5.30;;;486.40;1843.20;;;;;;5092610;28;20451;-67
2022/05/06 01:22:50;;;;;;;7.95;5.40;;;461.60;1868.80;;;;;;5092254;28;20372;-68
2022/05/06 01:25:17;;;;;;;7.18;4.88;;;461.40;1894.40;;;;;;5092329;28;20848;-67
2022/05/06 01:27:55;;;;;;;7.28;4.85;;;461.30;1894.40;;;;;;5092280;28;20483;-70
2022/05/06 01:30:35;;;;;;;11.50;5.15;;;461.20;1894.40;;;;;;5092242;28;20447;-67
2022/05/06 01:33:07;;;;;;;6.85;5.10;;;461.20;1894.40;;;;;;5092502;28;20757;-70
2022/05/06 01:35:40;;;;;;;7.43;5.03;;;461.30;1894.40;;;;;;5092186;28;20706;-70
2022/05/06 01:38:07;;;;;;;7.40;5.00;;;461.30;1920.00;;;;;;5092127;28;20384;-70
2022/05/06 01:40:41;;;;;;;5.97;5.18;;;461.30;1894.40;;;;;;5092136;28;20366;-70
2022/05/06 01:43:11;;;;;;;6.97;4.87;;;461.20;1894.40;;;;;;5092119;28;20376;-69
2022/05/06 01:45:38;;;;;;;7.93;4.97;;;461.20;1894.40;;;;;;5092053;28;20364;-70
2022/05/06 01:48:06;;;;;;;7.40;5.28;;;461.20;1894.40;;;;;;5091928;28;20406;-70
2022/05/06 01:50:35;;;;;;;6.68;4.30;;;461.30;1894.40;;;;;;5092271;28;20872;-70
2022/05/06 01:53:01;;;;;;;8.10;5.18;;;461.30;1894.40;;;;;;5092309;28;20400;-71
2022/05/06 01:55:27;;;;;;;6.47;4.90;;;461.30;1894.40;;;;;;5092075;28;20448;-71
2022/05/06 01:57:53;;;;;;;9.00;4.93;;;461.30;1894.40;;;;;;5091998;28;20384;-70
2022/05/06 02:00:19;;;;;;;6.53;4.67;;;461.30;1894.40;;;;;;5092242;28;20377;-69
2022/05/06 02:02:45;;;;;;;7.22;4.68;;;461.20;1894.40;;;;;;5092229;28;20725;-70
2022/05/06 02:05:17;;;;;;;7.30;4.77;;;461.20;1894.40;;;;;;5091920;28;20365;-70
2022/05/06 02:07:44;;;;;;;8.00;4.70;;;461.10;1920.00;;;;;;5091919;28;20417;-69
2022/05/06 02:10:10;;;;;;;7.55;4.50;;;461.20;1920.00;;;;;;5091862;28;20375;-70
2022/05/06 02:12:37;;;;;;;8.50;4.90;;;461.20;1894.40;;;;;;5091824;28;20365;-70
2022/05/06 02:15:03;;;;;;;6.90;4.70;;;461.30;1894.40;;;;;;5091763;28;20375;-70
2022/05/06 02:17:29;;;;;;;6.00;4.65;;;461.20;1920.00;;;;;;5091834;28;20865;-69
2022/05/06 02:19:55;;;;;;;6.35;4.22;;;461.30;1894.40;;;;;;5093020;28;20034;-68
2022/05/06 02:22:21;;;;;;;6.80;4.10;;;461.20;1920.00;;;;;;5095608;28;20028;-67
2022/05/06 02:24:47;;;;;;;5.22;4.40;;;461.10;1920.00;;;;;;5096646;28;20081;-70
2022/05/06 02:27:13;;;;;;;6.63;4.90;;;460.90;1945.60;;;;;;5097047;28;20027;-70
2022/05/06 02:33:12;;;;;;;5.25;4.47;;;436.10;1945.60;;;;;;5096618;28;20377;-69
2022/05/06 02:35:10;;;;;;;7.32;4.63;;;435.90;1996.80;;;;;;5096245;28;20078;-68
2022/05/06 02:37:36;;;;;;;7.25;4.82;;;435.80;1971.20;;;;;;5096580;28;20048;-70
2022/05/06 02:40:03;;;;;;;7.53;4.88;;;435.90;1971.20;;;;;;5096272;28;20032;-69
2022/05/06 02:42:31;;;;;;;7.65;5.10;;;435.90;1996.80;;;;;;5096216;28;20075;-67
2022/05/06 02:44:57;;;;;;;9.38;4.65;;;435.80;1996.80;;;;;;5096213;28;20125;-67
2022/05/06 02:47:23;;;;;;;8.75;4.97;;;435.80;2022.40;;;;;;5096081;28;20052;-68
2022/05/06 02:49:49;;;;;;;5.68;4.70;;;435.70;2022.40;;;;;;5096075;28;20035;-70
2022/05/06 02:52:15;;;;;;;7.18;4.78;;;435.70;2022.40;;;;;;5096096;28;20067;-69
2022/05/06 02:54:41;;;;;;;7.22;4.60;;;435.80;2022.40;;;;;;5096003;28;20032;-67
2022/05/06 02:57:07;;;;;;;8.38;5.43;;;435.80;2022.40;;;;;;5096066;28;20058;-67
2022/05/06 02:59:32;;;;;;;6.65;4.32;;;435.70;2022.40;;;;;;5095953;28;20024;-67
2022/05/06 03:01:58;;;;;;;8.00;4.55;;;435.70;2022.40;;;;;;5096128;28;20039;-68
2022/05/06 03:04:24;;;;;;;6.78;5.03;;;435.70;2048.00;;;;;;5095867;28;20103;-70
2022/05/06 03:06:50;;;;;;;8.75;5.35;;;435.70;2022.40;;;;;;5095812;28;20028;-69
2022/05/06 03:09:16;;;;;;;6.95;4.45;;;435.70;2022.40;;;;;;5095798;28;20024;-67
2022/05/06 03:11:41;;;;;;;6.72;4.88;;;435.80;2022.40;;;;;;5096300;28;20020;-67
2022/05/06 03:14:07;;;;;;;9.95;4.90;;;435.80;2022.40;;;;;;5095640;28;20050;-68
2022/05/06 03:16:33;;;;;;;7.70;5.10;;;435.90;1996.80;;;;;;5096203;28;20069;-70
2022/05/06 03:19:00;;;;;;;9.38;5.90;;;435.90;2022.40;;;;;;5094268;28;20024;-68
2022/05/06 03:21:27;;;;;;;9.40;4.93;;;435.90;2022.40;;;;;;5095608;28;20020;-69
2022/05/06 03:23:53;;;;;;;8.40;5.20;;;435.90;2022.40;;;;;;5095779;28;20133;-69
2022/05/06 03:26:19;;;;;;;10.00;5.32;;;435.90;2022.40;;;;;;5095330;28;20024;-68
2022/05/06 03:28:46;;;;;;;7.30;5.15;;;435.90;2022.40;;;;;;5095315;28;20092;-70
2022/05/06 03:31:13;;;;;;;9.45;5.20;;;435.80;2022.40;;;;;;5095601;28;20028;-69
2022/05/06 03:33:42;;;;;;;7.53;4.90;;;435.80;2022.40;;;;;;5092936;28;20028;-67
2022/05/06 03:36:11;;;;;;;9.50;5.32;;;435.80;2022.40;;;;;;5095113;28;20113;-67
2022/05/06 03:38:37;;;;;;;8.50;5.57;;;435.80;2048.00;;;;;;5095177;28;20031;-68
2022/05/06 03:41:03;;;;;;;8.10;4.82;;;435.70;2022.40;;;;;;5095120;28;20488;-67
2022/05/06 03:43:29;;;;;;;10.27;5.20;;;435.80;2022.40;;;;;;5095050;28;20023;-67
2022/05/06 03:45:55;;;;;;;6.53;5.28;;;435.80;2022.40;;;;;;5095302;28;20538;-67
2022/05/06 03:48:24;;;;;;;6.93;5.25;;;435.80;2022.40;;;;;;5093607;28;20101;-67
2022/05/06 03:53:38;;;;;;;9.27;5.05;;;435.80;2048.00;;;;;;5095238;28;20035;-68
2022/05/06 03:56:04;;;;;;;7.75;4.88;;;435.80;2022.40;;;;;;5094835;28;20019;-71
2022/05/06 03:58:32;;;;;;;6.75;5.18;;;435.80;2048.00;;;;;;5095088;28;20115;-68
2022/05/06 04:00:58;;;;;;;7.97;5.13;;;435.70;2048.00;;;;;;5094701;28;20472;-69
2022/05/06 04:03:24;;;;;;;8.40;5.40;;;435.70;2048.00;;;;;;5094716;28;20043;-69
2022/05/06 04:05:52;;;;;;;12.00;5.30;;;435.70;2048.00;;;;;;5094620;28;20024;-67
2022/05/06 04:08:18;;;;;;;6.32;5.35;;;435.70;2048.00;;;;;;5094527;28;20036;-67
2022/05/06 04:10:44;;;;;;;5.78;5.10;;;435.70;2073.60;;;;;;5094623;28;20062;-69
2022/05/06 04:13:10;;;;;;;13.13;6.60;;;435.60;2073.60;;;;;;5094870;28;20020;-69
2022/05/06 04:15:38;;;;;;;8.73;5.15;;;435.70;2073.60;;;;;;5094542;28;20384;-71
2022/05/06 04:18:04;;;;;;;8.35;5.25;;;435.70;2073.60;;;;;;5094685;28;20381;-70
2022/05/06 04:23:30;;;;;;;6.00;5.13;;;435.70;2073.60;;;;;;5094653;28;20511;-71
2022/05/06 04:26:01;;;;;;;7.40;5.60;;;435.70;2073.60;;;;;;5095116;28;20419;-67
2022/05/06 04:28:28;;;;;;;5.55;4.82;;;435.80;2073.60;;;;;;5094467;28;20089;-68
2022/05/06 04:30:54;;;;;;;11.18;4.82;;;435.70;2099.20;;;;;;5094429;28;20017;-68
2022/05/06 04:33:22;;;;;;;10.65;5.53;;;435.70;2099.20;;;;;;5094191;28;20031;-67
2022/05/06 04:35:48;;;;;;;8.18;5.47;;;435.70;2099.20;;;;;;5093898;28;20051;-68
2022/05/06 04:38:14;;;;;;;9.57;6.10;;;435.70;2099.20;;;;;;5094117;28;20024;-70
2022/05/06 04:40:41;;;;;;;11.25;7.22;;;435.70;2099.20;;;;;;5094107;28;20380;-71
2022/05/06 04:43:10;;;;;;;9.57;6.60;;;435.70;2099.20;;;;;;5094089;28;20046;-70
2022/05/06 04:45:40;;;;;;;11.05;5.72;;;435.70;2099.20;;;;;;5093762;28;20031;-71
2022/05/06 04:48:07;;;;;;;9.98;6.40;;;435.70;2099.20;;;;;;5094409;28;20477;-68
2022/05/06 04:50:34;;;;;;;9.30;5.97;;;435.80;2124.80;;;;;;5093972;28;20055;-70
2022/05/06 04:53:01;;;;;;;8.65;5.47;;;435.80;2124.80;;;;;;5093927;28;20024;-70
2022/05/06 04:55:28;;;;;;;10.52;5.80;;;435.90;2099.20;;;;;;5094162;28;20024;-68
2022/05/06 04:57:53;;;;;;;9.35;5.47;;;436.00;2073.60;;;;;;5093836;28;20028;-70
2022/05/06 05:00:22;;;;;;;25.73;5.75;;;435.90;2073.60;;;;;;5094039;28;20031;-71
2022/05/06 05:02:49;;;;;;;7.00;5.43;;;436.00;2073.60;;;;;;5093643;28;20031;-68
2022/05/06 05:05:15;;;;;;;9.38;5.47;;;436.10;2073.60;;;;;;5093916;28;20024;-68
2022/05/06 05:07:42;;;;;;;6.75;5.65;;;436.10;2073.60;;;;;;5093560;28;20058;-70
2022/05/06 05:10:08;;;;;;;7.32;5.72;;;436.10;2048.00;;;;;;5093543;28;20087;-70
2022/05/06 05:12:35;;;;;;;8.20;5.53;;;460.80;2099.20;;;;;;5093524;28;20024;-70
2022/05/06 05:15:02;;;;;;;7.95;5.40;;;460.80;2073.60;;;;;;5093470;28;20024;-68
2022/05/06 05:17:27;;;;;;;8.43;5.57;;;460.90;2073.60;;;;;;5093526;28;20073;-70
2022/05/06 05:19:54;;;;;;;8.35;5.68;;;460.80;2073.60;;;;;;5094282;28;20060;-68
2022/05/06 05:22:20;;;;;;;7.47;5.38;;;460.80;2073.60;;;;;;5093431;28;20028;-70
2022/05/06 05:24:47;;;;;;;8.65;5.60;;;436.10;2073.60;;;;;;5093774;28;20021;-70
2022/05/06 05:27:13;;;;;;;13.93;5.80;;;460.80;2073.60;;;;;;5093608;28;20024;-70
2022/05/06 05:29:40;;;;;;;9.20;6.30;;;460.90;2073.60;;;;;;5093657;28;20434;-69
2022/05/06 05:32:08;;;;;;;10.27;5.38;;;460.90;2073.60;;;;;;5093436;28;20042;-69
2022/05/06 05:34:34;;;;;;;9.77;5.63;;;460.90;2048.00;;;;;;5093455;28;20027;-70
2022/05/06 05:37:00;;;;;;;7.80;5.10;;;461.10;2048.00;;;;;;5093170;28;20074;-70
2022/05/06 05:39:26;;;;;;;9.30;5.38;;;461.10;2048.00;;;;;;5093341;28;20132;-67
2022/05/06 05:41:52;;;;;;;9.13;5.35;;;461.10;2048.00;;;;;;5093632;28;20048;-70
2022/05/06 05:49:47;;;;;;;11.10;5.68;;;461.30;2022.40;;;;;;5094262;28;20039;-67
2022/05/06 05:52:13;;;;;;;5.97;5.38;;;461.30;2022.40;;;;;;5093233;28;20017;-67
2022/05/06 05:54:39;;;;;;;8.15;5.45;;;461.30;2022.40;;;;;;5093218;28;20392;-70
2022/05/06 05:57:05;;;;;;;9.98;5.78;;;461.40;2022.40;;;;;;5095641;28;20069;-70
2022/05/06 05:59:33;;;;;;;7.13;5.50;;;461.50;2022.40;;;;;;5097107;28;20059;-68
2022/05/06 06:02:01;;;;;;;6.35;5.40;;;461.50;2022.40;;;;;;5097718;28;20024;-69
2022/05/06 06:04:27;;;;;;;7.15;5.40;;;461.50;2022.40;;;;;;5097039;28;20483;-67
2022/05/06 06:06:53;;;;;;;7.70;5.03;;;461.60;1996.80;;;;;;5097013;28;20043;-70
2022/05/06 06:09:22;;;;;;;6.57;5.15;;;461.60;1996.80;;;;;;5096969;28;20472;-70
2022/05/06 06:11:51;;;;;;;6.32;5.28;;;461.70;1996.80;;;;;;5097168;28;20468;-67
2022/05/06 06:14:17;;;;;;;6.90;5.05;;;486.40;1971.20;;;;;;5097121;28;20373;-69
2022/05/06 06:16:44;;;;;;;8.38;5.45;;;486.40;1971.20;;;;;;5096822;28;20016;-71
2022/05/06 06:19:10;;;;;;;7.57;5.15;;;486.40;1971.20;;;;;;5097289;28;20023;-68
2022/05/06 06:21:36;;;;;;;10.77;5.63;;;486.50;1945.60;;;;;;5096325;28;20032;-71
2022/05/06 06:24:03;;;;;;;8.85;5.28;;;486.50;1971.20;;;;;;5096879;28;20044;-67
2022/05/06 06:26:29;;;;;;;6.68;4.63;;;486.40;1945.60;;;;;;5095870;28;20055;-69
2022/05/06 06:28:55;;;;;;;9.23;5.05;;;486.50;1971.20;;;;;;5096053;28;20118;-68
2022/05/06 06:31:21;;;;;;;6.28;5.18;;;486.50;1945.60;;;;;;5095986;28;20152;-70
2022/05/06 06:33:47;;;;;;;8.27;5.30;;;486.50;1945.60;;;;;;5096262;28;20031;-69
2022/05/06 06:36:13;;;;;;;8.90;5.45;;;486.70;1945.60;;;;;;5095843;28;20044;-71
2022/05/06 06:38:39;;;;;;;9.52;5.20;;;486.80;1920.00;;;;;;5096142;28;20016;-68
2022/05/06 06:41:05;;;;;;;7.53;5.35;;;486.90;1920.00;;;;;;5095900;28;20020;-68
2022/05/06 06:43:31;;;;;;;9.30;5.55;;;486.80;1945.60;;;;;;5095880;28;20070;-70
2022/05/06 06:45:57;;;;;;;5.63;4.97;;;486.80;1920.00;;;;;;5095748;28;20155;-70
2022/05/06 06:48:24;;;;;;;7.60;5.07;;;486.90;1894.40;;;;;;5095637;28;20053;-69
2022/05/06 06:50:52;;;;;;;16.40;5.55;;;487.00;1894.40;;;;;;5095901;28;20481;-72
2022/05/06 06:53:19;;;;;;;8.98;5.20;;;487.10;1894.40;;;;;;5096004;28;20484;-70
2022/05/06 06:55:45;;;;;;;12.48;5.15;;;487.00;1868.80;;;;;;5095782;28;20024;-71
2022/05/06 06:58:11;;;;;;;8.85;5.53;;;487.10;1868.80;;;;;;5095677;28;20028;-70
2022/05/06 07:00:37;;;;;;;5.32;4.82;;;487.30;1894.40;;;;;;5095469;28;20062;-69
2022/05/06 07:03:03;;;;;;;9.80;5.43;;;487.30;1868.80;;;;;;5095450;28;20469;-70
2022/05/06 07:05:30;;;;;;;9.38;5.15;;;512.00;1868.80;;;;;;5095476;28;20020;-69
2022/05/06 07:13:25;;;;;;;8.63;5.00;;;512.30;1868.80;;;;;;5092555;28;20046;-70
2022/05/06 07:15:51;;;;;;;7.60;4.97;;;512.40;1868.80;;;;;;5095164;28;20485;-70
2022/05/06 07:18:17;;;;;;;5.65;4.90;;;512.60;1868.80;;;;;;5095463;28;20045;-70
2022/05/06 07:20:43;;;;;;;8.35;4.78;;;512.70;1843.20;;;;;;5095343;28;20039;-68
2022/05/06 07:23:10;;;;;;;8.40;4.65;;;512.60;1817.60;;;;;;5094990;28;20047;-70
2022/05/06 07:25:37;;;;;;;8.45;5.07;;;512.60;1817.60;;;;;;5094939;28;20433;-70
2022/05/06 07:28:04;;;;;;;15.68;5.35;;;512.70;1817.60;;;;;;5094654;28;20063;-71
2022/05/06 07:30:30;;;;;;;9.30;4.75;;;512.70;1817.60;;;;;;5095288;28;20468;-71
2022/05/06 07:32:55;;;;;;;11.30;4.45;;;512.70;1792.00;;;;;;5077219;28;20034;-69
2022/05/06 07:35:21;;;;;;;5.55;4.60;;;512.80;1792.00;;;;;;5094515;28;20031;-68
2022/05/06 07:37:47;;;;;;;7.07;4.78;;;512.80;1792.00;;;;;;5095692;28;20096;-70
2022/05/06 07:40:14;;;;;;;10.25;4.65;;;512.80;1817.60;;;;;;5095243;28;20021;-69
2022/05/06 07:42:41;;;;;;;7.68;4.63;;;537.60;1817.60;;;;;;5095129;28;20056;-69
2022/05/06 07:45:07;;;;;;;8.30;4.20;;;;;;;;;;5094924;28;20036;-68
2022/05/06 07:47:33;;;;;;;12.77;4.13;;;537.70;1766.40;;;;;;5094813;28;20035;-69
2022/05/06 07:49:59;;;;;;;7.75;4.22;;;512.90;1766.40;;;;;;5094924;28;20028;-69
2022/05/06 07:52:25;;;;;;;6.88;4.10;;;537.60;1766.40;;;;;;5094477;28;20023;-69
2022/05/06 07:54:51;;;;;;;8.75;4.28;;;537.60;1766.40;;;;;;5094936;28;20020;-69
2022/05/06 07:57:17;;;;;;;9.48;4.13;;;537.60;1817.60;;;;;;5095130;28;20095;-69
2022/05/06 07:59:43;;;;;;;7.10;4.72;;;537.80;1792.00;;;;;;5094700;28;20063;-69
2022/05/06 08:04:53;;;;;;;8.73;4.63;;;537.90;1740.80;;;;;;5094868;28;20092;-69
2022/05/06 08:07:19;;;;;;;11.98;4.63;;;537.90;1894.40;;;;;;5094177;28;20027;-69
2022/05/06 08:09:45;;;;;;;8.05;4.18;;;538.20;1740.80;;;;;;5075917;28;20028;-68
2022/05/06 08:12:11;;;;;;;6.28;4.32;;;538.20;1740.80;;;;;;5094072;28;20017;-69
2022/05/06 08:14:37;;;;;;;10.98;3.95;;;538.30;1689.60;;;;;;5094347;28;20016;-69
2022/05/06 08:17:03;;;;;;;7.03;3.78;;;538.20;1689.60;;;;;;5094267;28;20477;-70
2022/05/06 08:19:29;;;;;;;8.98;4.00;;;538.20;1689.60;;;;;;5093367;28;20376;-70
2022/05/06 08:21:55;;;;;;;9.88;3.85;;;538.40;1689.60;;;;;;5090875;28;20034;-69
2022/05/06 08:24:22;;;;;;;8.98;3.50;;;538.50;1689.60;;;;;;5093508;28;20028;-69
2022/05/06 08:26:49;;;;;;;5.10;3.50;;;563.20;1664.00;;;;;;5094174;28;20115;-69
2022/05/06 08:29:15;;;;;;;8.50;3.55;;;563.40;1689.60;;;;;;5093631;28;20552;-68
2022/05/06 08:31:41;;;;;;;6.35;3.63;;;563.50;1638.40;;;;;;5093761;28;20024;-70
2022/05/06 08:34:12;;;;;;;6.40;3.50;;;563.60;1664.00;;;;;;5093693;28;20057;-69
2022/05/06 08:36:45;;;;;;;9.00;4.15;;;563.70;1664.00;;;;;;5093568;28;20071;-69
2022/05/06 08:39:12;;;;;;;10.35;4.00;;;563.70;1664.00;;;;;;5093676;28;20453;-69
2022/05/06 08:41:38;;;;;;;9.00;3.80;;;563.80;1638.40;;;;;;5093655;28;20427;-69
2022/05/06 08:52:33;;;;;;;11.88;3.80;;;564.10;1638.40;;;;;;5093839;28;20035;-71
2022/05/06 08:55:01;;;;;;;6.57;3.15;;;564.10;1587.20;;;;;;5093589;28;20028;-72
2022/05/06 08:57:27;;;;;;;6.97;2.97;;;564.10;1561.60;;;;;;5093035;28;20032;-71
2022/05/06 08:59:53;;;;;;;6.85;3.35;;;564.10;1561.60;;;;;;5092823;28;20020;-71
2022/05/06 09:02:19;;;;;;;7.72;3.10;;;588.90;1587.20;;;;;;5092862;28;20031;-69
2022/05/06 09:04:45;;;;;;;8.82;3.45;;;588.90;1561.60;;;;;;5092844;28;20016;-72
2022/05/06 09:07:21;;;;;;;9.30;3.15;;;588.80;1536.00;;;;;;5092993;28;20388;-69
2022/05/06 09:10:15;;;;;;;8.00;3.17;;;588.90;1510.40;;;;;;5093381;28;20028;-72
2022/05/06 09:12:46;;;;;;;8.48;2.67;;;589.00;1484.80;;;;;;5090039;28;20392;-71
2022/05/06 09:17:59;;;;;;;8.32;2.78;;;589.20;1459.20;;;;;;5093181;28;20093;-70
2022/05/06 09:20:26;;;;;;;6.75;2.72;;;589.20;1433.60;;;;;;5092866;28;20107;-69
2022/05/06 09:22:53;;;;;;;10.40;3.10;;;589.40;1459.20;;;;;;5092574;28;20021;-72
2022/05/06 09:25:34;;;;;;;6.53;3.00;;;589.40;1433.60;;;;;;5092918;28;20365;-70
2022/05/06 09:28:00;;;;;;;7.72;3.22;;;589.10;1433.60;;;;;;5092702;28;20105;-73
2022/05/06 09:30:26;;;;;;;8.25;3.08;;;589.50;1408.00;;;;;;5092737;28;20457;-73
2022/05/06 09:32:51;;;;;;;8.45;3.70;;;614.40;1433.60;;;;;;5096172;28;20103;-71
2022/05/06 09:35:18;;;;;;;7.15;3.08;;;614.40;1408.00;;;;;;5096458;28;20044;-70
2022/05/06 09:37:48;;;;;;;6.35;2.90;;;614.50;1433.60;;;;;;5096517;28;20042;-70
2022/05/06 09:40:21;;;;;;;8.23;3.10;;;614.50;1408.00;;;;;;5097057;28;20036;-70
2022/05/06 09:42:55;;;;;;;7.55;2.90;;;614.50;1382.40;;;;;;5097181;28;20419;-71
2022/05/06 09:45:37;;;;;;;10.32;3.45;;;614.60;1382.40;;;;;;5097426;28;20377;-71
2022/05/06 09:48:04;;;;;;;5.80;2.90;;;614.70;1408.00;;;;;;5097176;28;20111;-68
2022/05/06 09:50:50;;;;;;;7.50;3.35;;;614.80;1356.80;;;;;;5097236;28;20035;-72
2022/05/06 09:53:18;;;;;;;4.28;2.80;;;614.70;1382.40;;;;;;5096748;28;20039;-70
2022/05/06 09:55:45;;;;;;;5.85;2.83;;;614.60;1382.40;;;;;;5096916;28;20035;-70
2022/05/06 09:58:12;;;;;;;6.97;3.10;;;614.70;1356.80;;;;;;5096886;28;20032;-70
2022/05/06 10:00:38;;;;;;;5.57;3.10;;;614.70;1382.40;;;;;;5096673;28;20063;-70
2022/05/06 10:03:06;;;;;;;5.18;2.78;;;614.80;1356.80;;;;;;5096687;28;20096;-69
2022/05/06 10:05:34;;;;;;;6.43;2.92;;;614.80;1356.80;;;;;;5096841;28;20025;-69
2022/05/06 10:08:03;;;;;;;7.15;2.85;;;;;;;;;;5096652;28;20040;-70
2022/05/06 10:10:33;;;;;;;17.83;3.50;;;615.10;1382.40;;;;;;5096091;28;20411;-70
2022/05/06 10:13:04;;;;;;;10.20;3.03;;;614.90;1356.80;;;;;;5096339;28;20549;-72
2022/05/06 10:15:33;;;;;;;7.53;2.97;;;614.80;1356.80;;;;;;5096773;28;20047;-68
2022/05/06 10:18:02;;;;;;;8.55;3.08;;;614.90;1356.80;;;;;;5095448;28;20032;-70
2022/05/06 10:20:37;;;;;;;9.20;3.60;;;615.20;1356.80;;;;;;5094919;28;20481;-71
2022/05/06 10:23:04;;;;;;;10.82;4.43;;;615.20;1356.80;;;;;;5095057;28;20069;-70
2022/05/06 10:25:41;;;;;;;8.10;3.10;;;615.20;1331.20;;;;;;5095029;28;20016;-72
2022/05/06 10:34:10;;;;;;;;;;;640.00;1280.00;;;;;;5096969;28;20039;-68
2022/05/06 10:36:53;;;;;;;4.45;3.13;;;640.20;1305.60;;;;;;5096082;28;19958;-69
2022/05/06 10:39:24;;;;;;;4.93;3.07;;;640.20;1305.60;;;;;;5096196;28;20485;-69
2022/05/06 10:42:10;;;;;;;6.50;2.92;;;640.30;1331.20;;;;;;5095676;28;20020;-69
2022/05/06 10:44:36;;;;;;;9.15;3.17;;;640.70;1305.60;;;;;;5095731;28;20024;-69
2022/05/06 10:47:23;;;;;;;19.30;3.45;;;640.80;1280.00;;;;;;5095920;28;20381;-71
2022/05/06 10:49:50;;;;;;;4.63;2.53;;;665.60;1331.20;;;;;;5096377;28;20059;-70
2022/05/06 10:52:26;;;;;;;9.77;2.78;;;665.70;1280.00;;;;;;5096324;28;20499;-70
2022/05/06 10:54:54;;;;;;;5.82;2.90;;;665.80;1228.80;;;;;;5096467;28;20031;-70
2022/05/06 10:57:22;;;;;;;18.13;3.17;;;665.90;1228.80;;;;;;5096388;28;20045;-71
2022/05/06 10:59:56;;;;;;;12.95;3.38;;;665.70;1228.80;;;;;;5095724;28;20497;-68
2022/05/06 11:02:37;;;;;;;9.05;2.65;;;665.60;1228.80;;;;;;5096022;28;20472;-71
2022/05/06 11:05:05;;;;;;;6.63;2.60;;;665.60;1254.40;;;;;;5096248;28;20024;-69
2022/05/06 11:07:33;;;;;;;13.13;3.67;;;665.90;1254.40;;;;;;5095981;28;20114;-69
2022/05/06 11:09:59;;;;;;;5.82;3.20;;;665.90;1254.40;;;;;;5095806;28;20099;-68
2022/05/06 11:12:34;;;;;;;5.90;2.75;;;665.80;1254.40;;;;;;5096008;28;20165;-69
2022/05/06 11:15:13;;;;;;;6.32;2.85;;;665.60;1254.40;;;;;;5095398;28;20028;-69
2022/05/06 11:17:40;;;;;;;9.70;3.80;;;640.70;1228.80;;;;;;5096045;28;20025;-68
2022/05/06 11:20:21;;;;;;;4.03;3.10;;;640.80;1254.40;;;;;;5093970;28;20115;-68
2022/05/06 11:22:55;;;;;;;6.28;2.92;;;666.00;1254.40;;;;;;5094486;28;20107;-68
2022/05/06 11:25:22;;;;;;;7.68;3.30;;;666.30;1254.40;;;;;;5095111;28;20078;-69
2022/05/06 11:27:52;;;;;;;6.55;2.63;;;691.20;1203.20;;;;;;5094856;28;20028;-69
2022/05/06 11:30:19;;;;;;;8.80;3.00;;;666.40;1203.20;;;;;;5095408;28;20488;-69
2022/05/06 11:32:51;;;;;;;4.82;2.92;;;691.20;1203.20;;;;;;5095554;28;20020;-68
2022/05/06 11:35:26;;;;;;;6.93;2.72;;;666.40;1203.20;;;;;;5095340;28;20066;-69
2022/05/06 11:37:52;;;;;;;4.47;2.55;;;691.20;1228.80;;;;;;5095310;28;20111;-69
2022/05/06 11:40:35;;;;;;;4.72;2.65;;;666.50;1203.20;;;;;;5095267;28;20043;-69
2022/05/06 11:43:02;;;;;;;5.68;2.90;;;691.20;1228.80;;;;;;5095307;28;20414;-68
2022/05/06 11:48:16;;;;;;;19.83;3.10;;;691.40;1228.80;;;;;;5095142;28;20039;-69
2022/05/06 11:50:43;;;;;;;9.82;3.17;;;691.20;1177.60;;;;;;5095104;28;20077;-69
2022/05/06 11:53:13;;;;;;;7.90;2.90;;;691.30;1203.20;;;;;;5076762;28;20384;-69
2022/05/06 11:55:42;;;;;;;6.40;2.90;;;691.30;1203.20;;;;;;5094303;28;20024;-68
2022/05/06 11:58:13;;;;;;;5.80;2.83;;;691.20;1228.80;;;;;;5095215;28;20031;-69
2022/05/06 12:00:40;;;;;;;6.43;2.95;;;691.40;1203.20;;;;;;5094829;28;20030;-69
2022/05/06 12:03:09;;;;;;;11.43;3.17;;;691.30;1203.20;;;;;;5094848;28;20024;-69
2022/05/06 12:05:37;;;;;;;6.25;2.75;;;691.40;1203.20;;;;;;5095325;28;20021;-69
2022/05/06 12:08:04;;;;;;;4.82;3.03;;;691.30;1203.20;;;;;;5094677;28;20036;-69
2022/05/06 12:10:31;;;;;;;7.65;2.92;;;691.40;1203.20;;;;;;5094702;28;20016;-69
2022/05/06 12:13:04;;;;;;;7.90;3.40;;;691.40;1203.20;;;;;;5094895;28;20036;-69
2022/05/06 12:15:38;;;;;;;6.38;3.20;;;691.40;1203.20;;;;;;5076469;28;20016;-69
2022/05/06 12:18:09;;;;;;;4.68;2.75;;;691.40;1228.80;;;;;;5094861;28;20039;-69
2022/05/06 12:20:37;;;;;;;4.28;2.92;;;691.70;1203.20;;;;;;5094488;28;20052;-69
2022/05/06 12:23:04;;;;;;;8.45;2.97;;;691.70;1203.20;;;;;;5094706;28;20373;-69
2022/05/06 12:25:31;;;;;;;8.27;2.90;;;691.80;1177.60;;;;;;5094338;28;20422;-69
2022/05/06 12:28:17;;;;;;;4.57;2.97;;;691.70;1177.60;;;;;;5094190;28;20032;-68
2022/05/06 12:30:46;;;;;;;6.50;2.53;;;691.80;1203.20;;;;;;5094301;28;20024;-69
2022/05/06 12:33:17;;;;;;;4.03;2.83;;;691.60;1203.20;;;;;;5094248;28;20133;-69
2022/05/06 12:35:57;;;;;;;5.13;2.50;;;691.60;1203.20;;;;;;5094298;28;20448;-69
2022/05/06 12:38:43;;;;;;;13.75;3.40;;;691.60;1203.20;;;;;;5094415;28;20016;-68
2022/05/06 12:41:22;;;;;;;9.77;2.78;;;691.40;1203.20;;;;;;5094239;28;20498;-69
2022/05/06 12:43:49;;;;;;;7.20;2.75;;;691.20;1203.20;;;;;;5094336;28;20384;-69
2022/05/06 12:46:31;;;;;;;8.10;2.90;;;691.20;1203.20;;;;;;5094015;28;20035;-69
2022/05/06 12:51:44;;;;;;;6.50;2.60;;;666.40;1228.80;;;;;;5094343;28;20082;-69
2022/05/06 12:54:11;;;;;;;5.93;3.13;;;666.40;1228.80;;;;;;5094142;28;20392;-69
2022/05/06 12:56:40;;;;;;;;;;;666.30;1228.80;;;;;;5094314;28;20027;-69
2022/05/06 12:59:07;;;;;;;8.35;2.78;;;691.20;1228.80;;;;;;5093862;28;20383;-69
2022/05/06 13:01:33;;;;;;;7.55;3.00;;;691.20;1254.40;;;;;;5092873;28;20380;-69
2022/05/06 13:04:00;;;;;;;8.85;3.13;;;691.30;1228.80;;;;;;5092682;28;20372;-69
2022/05/06 13:06:26;;;;;;;7.03;3.13;;;691.30;1203.20;;;;;;5092433;28;20391;-69
2022/05/06 13:08:52;;;;;;;4.70;3.03;;;691.20;1228.80;;;;;;5092956;28;20445;-69